C2018 KORL-KVQQ
Flight info
| Callsign | C2018 |
|---|---|
| Flight time | 2h 15m |
| Altitude | 12500 |
| Route | VFR |
| Aircraft | C30J/M-SDE2E3FGRY/LB1 |
Departure
| Time | 2026-05-04 23:43 |
|---|---|
| Airport | Orlando Executive Airport (KORL) |
Arrival
| Time | 2026-05-05 01:58 |
|---|---|
| Airport | Cecil Airport (KVQQ) |
| Time | Latitude | Longitude | Altitude | Speed | Heading |
|---|---|---|---|---|---|
| 2026-05-04 23:32 | 28.54832 | -81.33836 | 116 ft | 0 kts | 136° |
| 2026-05-04 23:34 | 28.54825 | -81.33829 | 119 ft | 7 kts | 141° |
| 2026-05-04 23:35 | 28.54779 | -81.33797 | 115 ft | 9 kts | 152° |
| 2026-05-04 23:35 | 28.54712 | -81.33755 | 116 ft | 11 kts | 145° |
| 2026-05-04 23:35 | 28.54647 | -81.33680 | 115 ft | 12 kts | 130° |
| 2026-05-04 23:35 | 28.54614 | -81.33636 | 114 ft | 18 kts | 133° |
| 2026-05-04 23:36 | 28.54581 | -81.33599 | 114 ft | 5 kts | 146° |
| 2026-05-04 23:36 | 28.54569 | -81.33599 | 114 ft | 8 kts | 193° |
| 2026-05-04 23:36 | 28.54559 | -81.33603 | 112 ft | 1 kts | 223° |
| 2026-05-04 23:36 | 28.54550 | -81.33633 | 112 ft | 7 kts | 257° |
| 2026-05-04 23:37 | 28.54521 | -81.33696 | 110 ft | 13 kts | 247° |
| 2026-05-04 23:37 | 28.54494 | -81.33764 | 111 ft | 17 kts | 248° |
| 2026-05-04 23:37 | 28.54484 | -81.33795 | 112 ft | 16 kts | 249° |
| 2026-05-04 23:37 | 28.54474 | -81.33815 | 109 ft | 5 kts | 233° |
| 2026-05-04 23:38 | 28.54445 | -81.33850 | 111 ft | 7 kts | 224° |
| 2026-05-04 23:38 | 28.54421 | -81.33888 | 110 ft | 5 kts | 243° |
| 2026-05-04 23:38 | 28.54408 | -81.33905 | 112 ft | 0 kts | 215° |
| 2026-05-04 23:38 | 28.54393 | -81.33924 | 111 ft | 4 kts | 228° |
| 2026-05-04 23:39 | 28.54376 | -81.33944 | 109 ft | 1 kts | 213° |
| 2026-05-04 23:39 | 28.54375 | -81.33944 | 109 ft | 0 kts | 185° |
| 2026-05-04 23:39 | 28.54374 | -81.33943 | 111 ft | 0 kts | 181° |
| 2026-05-04 23:41 | 28.54373 | -81.33943 | 111 ft | 0 kts | 181° |
| 2026-05-04 23:42 | 28.54348 | -81.33940 | 108 ft | 15 kts | 169° |
| 2026-05-04 23:42 | 28.54307 | -81.33877 | 109 ft | 13 kts | 83° |
| 2026-05-04 23:42 | 28.54431 | -81.33532 | 112 ft | 97 kts | 67° |
| 2026-05-04 23:42 | 28.54787 | -81.32601 | 337 ft | 145 kts | 68° |
| 2026-05-04 23:43 | 28.55199 | -81.31487 | 842 ft | 159 kts | 70° |
| 2026-05-04 23:43 | 28.55620 | -81.30264 | 1136 ft | 174 kts | 69° |
| 2026-05-04 23:43 | 28.56191 | -81.29019 | 1450 ft | 178 kts | 59° |
| 2026-05-04 23:43 | 28.56887 | -81.27847 | 1574 ft | 182 kts | 57° |
| 2026-05-04 23:44 | 28.57601 | -81.26690 | 1642 ft | 175 kts | 57° |
| 2026-05-04 23:44 | 28.58083 | -81.25946 | 1516 ft | 176 kts | 57° |
| 2026-05-04 23:44 | 28.58794 | -81.24851 | 1279 ft | 166 kts | 56° |
| 2026-05-04 23:44 | 28.59444 | -81.23821 | 1442 ft | 166 kts | 56° |
| 2026-05-04 23:45 | 28.60128 | -81.22719 | 1542 ft | 177 kts | 56° |
| 2026-05-04 23:45 | 28.60828 | -81.21583 | 1506 ft | 171 kts | 57° |
| 2026-05-04 23:45 | 28.61499 | -81.20474 | 1495 ft | 173 kts | 56° |
| 2026-05-04 23:45 | 28.62182 | -81.19351 | 1501 ft | 173 kts | 57° |
| 2026-05-04 23:46 | 28.62871 | -81.18225 | 1505 ft | 175 kts | 57° |
| 2026-05-04 23:46 | 28.63552 | -81.17120 | 1504 ft | 172 kts | 58° |
| 2026-05-04 23:46 | 28.64252 | -81.15982 | 1502 ft | 175 kts | 56° |
| 2026-05-04 23:46 | 28.64948 | -81.14834 | 1634 ft | 187 kts | 58° |
| 2026-05-04 23:47 | 28.65753 | -81.13602 | 2357 ft | 201 kts | 49° |
| 2026-05-04 23:47 | 28.66735 | -81.12571 | 2472 ft | 189 kts | 43° |
| 2026-05-04 23:47 | 28.67776 | -81.11614 | 2510 ft | 197 kts | 42° |
| 2026-05-04 23:47 | 28.68837 | -81.10662 | 2484 ft | 185 kts | 42° |
| 2026-05-04 23:48 | 28.69837 | -81.09795 | 2489 ft | 180 kts | 40° |
| 2026-05-04 23:48 | 28.70835 | -81.08919 | 2502 ft | 178 kts | 41° |
| 2026-05-04 23:48 | 28.71822 | -81.08057 | 2513 ft | 180 kts | 41° |
| 2026-05-04 23:48 | 28.72813 | -81.07193 | 2496 ft | 179 kts | 41° |
| 2026-05-04 23:49 | 28.73807 | -81.06325 | 2503 ft | 181 kts | 41° |
| 2026-05-04 23:49 | 28.74802 | -81.05462 | 2507 ft | 179 kts | 41° |
| 2026-05-04 23:49 | 28.75803 | -81.04598 | 2498 ft | 180 kts | 41° |
| 2026-05-04 23:49 | 28.76800 | -81.03735 | 2506 ft | 180 kts | 41° |
| 2026-05-04 23:50 | 28.77784 | -81.02873 | 2508 ft | 177 kts | 41° |
| 2026-05-04 23:50 | 28.78769 | -81.02002 | 2494 ft | 180 kts | 40° |
| 2026-05-04 23:50 | 28.79758 | -81.01115 | 2494 ft | 180 kts | 42° |
| 2026-05-04 23:50 | 28.80738 | -81.00242 | 2504 ft | 180 kts | 40° |
| 2026-05-04 23:51 | 28.81729 | -80.99355 | 2503 ft | 180 kts | 41° |
| 2026-05-04 23:51 | 28.82710 | -80.98476 | 2497 ft | 182 kts | 41° |
| 2026-05-04 23:51 | 28.83746 | -80.97550 | 2749 ft | 195 kts | 40° |
| 2026-05-04 23:51 | 28.84815 | -80.96600 | 3768 ft | 194 kts | 39° |
| 2026-05-04 23:52 | 28.85884 | -80.95618 | 4706 ft | 201 kts | 39° |
| 2026-05-04 23:52 | 28.86942 | -80.94568 | 5609 ft | 207 kts | 40° |
| 2026-05-04 23:52 | 28.88011 | -80.93467 | 6625 ft | 207 kts | 41° |
| 2026-05-04 23:52 | 28.89083 | -80.92360 | 7576 ft | 210 kts | 41° |
| 2026-05-04 23:53 | 28.90168 | -80.91218 | 8535 ft | 213 kts | 41° |
| 2026-05-04 23:53 | 28.91261 | -80.90052 | 9488 ft | 216 kts | 41° |
| 2026-05-04 23:53 | 28.92410 | -80.88935 | 10366 ft | 218 kts | 30° |
| 2026-05-04 23:53 | 28.93736 | -80.88080 | 11193 ft | 219 kts | 24° |
| 2026-05-04 23:54 | 28.95113 | -80.87314 | 12034 ft | 220 kts | 17° |
| 2026-05-04 23:54 | 28.96628 | -80.86797 | 12487 ft | 237 kts | 10° |
| 2026-05-04 23:54 | 28.98280 | -80.86369 | 12541 ft | 243 kts | 9° |
| 2026-05-04 23:54 | 28.99951 | -80.86002 | 12528 ft | 246 kts | 5° |
| 2026-05-04 23:55 | 29.01651 | -80.85738 | 12520 ft | 247 kts | 4° |
| 2026-05-04 23:55 | 29.03357 | -80.85507 | 12516 ft | 247 kts | 1° |
| 2026-05-04 23:55 | 29.06749 | -80.85494 | 12515 ft | 244 kts | 352° |
| 2026-05-04 23:56 | 29.08438 | -80.85720 | 12509 ft | 244 kts | 349° |
| 2026-05-04 23:56 | 29.10112 | -80.86009 | 12511 ft | 243 kts | 348° |
| 2026-05-04 23:56 | 29.11789 | -80.86304 | 12512 ft | 244 kts | 348° |
| 2026-05-04 23:56 | 29.13462 | -80.86607 | 12512 ft | 244 kts | 348° |
| 2026-05-04 23:57 | 29.15145 | -80.86908 | 12512 ft | 244 kts | 348° |
| 2026-05-04 23:57 | 29.16819 | -80.87206 | 12512 ft | 244 kts | 348° |
| 2026-05-04 23:57 | 29.18495 | -80.87510 | 12516 ft | 243 kts | 348° |
| 2026-05-04 23:57 | 29.20169 | -80.87807 | 12515 ft | 243 kts | 348° |
| 2026-05-04 23:58 | 29.21811 | -80.88121 | 12515 ft | 241 kts | 340° |
| 2026-05-04 23:58 | 29.23459 | -80.88812 | 12539 ft | 263 kts | 336° |
| 2026-05-04 23:58 | 29.25242 | -80.89522 | 12526 ft | 286 kts | 340° |
| 2026-05-04 23:58 | 29.27213 | -80.90175 | 12506 ft | 303 kts | 342° |
| 2026-05-04 23:59 | 29.29301 | -80.90767 | 12510 ft | 314 kts | 344° |
| 2026-05-04 23:59 | 29.31466 | -80.91324 | 12525 ft | 322 kts | 345° |
| 2026-05-04 23:59 | 29.33676 | -80.91870 | 12521 ft | 327 kts | 346° |
| 2026-05-04 23:59 | 29.35912 | -80.92405 | 12512 ft | 330 kts | 346° |
| 2026-05-05 00:00 | 29.38174 | -80.92937 | 12516 ft | 333 kts | 346° |
| 2026-05-05 00:00 | 29.38945 | -80.93118 | 12515 ft | 333 kts | 346° |
| 2026-05-05 00:00 | 29.42731 | -80.94008 | 12519 ft | 335 kts | 346° |
| 2026-05-05 00:00 | 29.45031 | -80.94547 | 12521 ft | 336 kts | 346° |
| 2026-05-05 00:01 | 29.47300 | -80.95080 | 12515 ft | 336 kts | 346° |
| 2026-05-05 00:01 | 29.49593 | -80.95617 | 12518 ft | 336 kts | 346° |
| 2026-05-05 00:01 | 29.51891 | -80.96156 | 12517 ft | 337 kts | 346° |
| 2026-05-05 00:01 | 29.54190 | -80.96695 | 12522 ft | 337 kts | 346° |
| 2026-05-05 00:02 | 29.56492 | -80.97237 | 12520 ft | 337 kts | 346° |
| 2026-05-05 00:02 | 29.58784 | -80.97779 | 12523 ft | 337 kts | 346° |
| 2026-05-05 00:02 | 29.61084 | -80.98325 | 12523 ft | 337 kts | 346° |
| 2026-05-05 00:02 | 29.63339 | -80.98856 | 12515 ft | 320 kts | 346° |
| 2026-05-05 00:03 | 29.65425 | -80.99344 | 12516 ft | 303 kts | 346° |
| 2026-05-05 00:03 | 29.67480 | -80.99831 | 12524 ft | 302 kts | 346° |
| 2026-05-05 00:03 | 29.69545 | -81.00322 | 12529 ft | 304 kts | 346° |
| 2026-05-05 00:03 | 29.71629 | -81.00816 | 12528 ft | 305 kts | 346° |
| 2026-05-05 00:04 | 29.73707 | -81.01308 | 12527 ft | 305 kts | 346° |
| 2026-05-05 00:04 | 29.75787 | -81.01801 | 12525 ft | 305 kts | 346° |
| 2026-05-05 00:04 | 29.77869 | -81.02293 | 12523 ft | 305 kts | 346° |
| 2026-05-05 00:04 | 29.79944 | -81.02786 | 12525 ft | 305 kts | 346° |
| 2026-05-05 00:05 | 29.82026 | -81.03279 | 12530 ft | 305 kts | 345° |
| 2026-05-05 00:05 | 29.84102 | -81.03772 | 12526 ft | 304 kts | 346° |
| 2026-05-05 00:05 | 29.86177 | -81.04266 | 12532 ft | 304 kts | 346° |
| 2026-05-05 00:05 | 29.88252 | -81.04761 | 12536 ft | 304 kts | 345° |
| 2026-05-05 00:06 | 29.90324 | -81.05256 | 12531 ft | 305 kts | 346° |
| 2026-05-05 00:06 | 29.92406 | -81.05753 | 12534 ft | 305 kts | 345° |
| 2026-05-05 00:06 | 29.94478 | -81.06244 | 12532 ft | 304 kts | 346° |
| 2026-05-05 00:06 | 29.96527 | -81.06732 | 12531 ft | 305 kts | 345° |
| 2026-05-05 00:07 | 29.98610 | -81.07229 | 12527 ft | 305 kts | 346° |
| 2026-05-05 00:07 | 30.00686 | -81.07725 | 12530 ft | 305 kts | 346° |
| 2026-05-05 00:07 | 30.02764 | -81.08220 | 12529 ft | 305 kts | 346° |
| 2026-05-05 00:07 | 30.04844 | -81.08714 | 12532 ft | 305 kts | 345° |
| 2026-05-05 00:08 | 30.06920 | -81.09210 | 12535 ft | 305 kts | 346° |
| 2026-05-05 00:08 | 30.08995 | -81.09705 | 12529 ft | 304 kts | 345° |
| 2026-05-05 00:08 | 30.11071 | -81.10203 | 12522 ft | 305 kts | 347° |
| 2026-05-05 00:08 | 30.13149 | -81.10699 | 12528 ft | 305 kts | 346° |
| 2026-05-05 00:09 | 30.15229 | -81.11194 | 12527 ft | 305 kts | 346° |
| 2026-05-05 00:09 | 30.17308 | -81.11691 | 12528 ft | 299 kts | 346° |
| 2026-05-05 00:09 | 30.19225 | -81.12148 | 12509 ft | 264 kts | 345° |
| 2026-05-05 00:09 | 30.20926 | -81.12552 | 12505 ft | 235 kts | 346° |
| 2026-05-05 00:10 | 30.22417 | -81.12909 | 12491 ft | 209 kts | 345° |
| 2026-05-05 00:10 | 30.23784 | -81.13154 | 12504 ft | 193 kts | 349° |
| 2026-05-05 00:10 | 30.25120 | -81.13266 | 12511 ft | 193 kts | 353° |
| 2026-05-05 00:10 | 30.26475 | -81.13336 | 12511 ft | 196 kts | 354° |
| 2026-05-05 00:11 | 30.27840 | -81.13394 | 12514 ft | 196 kts | 354° |
| 2026-05-05 00:11 | 30.29196 | -81.13443 | 12513 ft | 195 kts | 354° |
| 2026-05-05 00:11 | 30.30555 | -81.13496 | 12513 ft | 196 kts | 355° |
| 2026-05-05 00:11 | 30.31915 | -81.13552 | 12515 ft | 196 kts | 354° |
| 2026-05-05 00:12 | 30.33276 | -81.13612 | 12516 ft | 195 kts | 355° |
| 2026-05-05 00:12 | 30.34636 | -81.13672 | 12514 ft | 196 kts | 355° |
| 2026-05-05 00:12 | 30.35994 | -81.13733 | 12515 ft | 195 kts | 355° |
| 2026-05-05 00:12 | 30.37352 | -81.13794 | 12516 ft | 195 kts | 355° |
| 2026-05-05 00:13 | 30.38710 | -81.13855 | 12513 ft | 196 kts | 355° |
| 2026-05-05 00:13 | 30.40071 | -81.13916 | 12519 ft | 195 kts | 355° |
| 2026-05-05 00:13 | 30.41429 | -81.13977 | 12517 ft | 195 kts | 354° |
| 2026-05-05 00:13 | 30.42783 | -81.14039 | 12516 ft | 195 kts | 354° |
| 2026-05-05 00:14 | 30.44147 | -81.14100 | 12514 ft | 196 kts | 353° |
| 2026-05-05 00:14 | 30.45507 | -81.14161 | 12516 ft | 195 kts | 354° |
| 2026-05-05 00:14 | 30.46865 | -81.14223 | 12517 ft | 195 kts | 354° |
| 2026-05-05 00:14 | 30.48195 | -81.14451 | 12512 ft | 193 kts | 334° |
| 2026-05-05 00:15 | 30.49180 | -81.15410 | 12516 ft | 187 kts | 297° |
| 2026-05-05 00:15 | 30.49398 | -81.16869 | 12519 ft | 187 kts | 263° |
| 2026-05-05 00:15 | 30.49128 | -81.18353 | 12522 ft | 187 kts | 255° |
| 2026-05-05 00:15 | 30.48774 | -81.19770 | 12510 ft | 184 kts | 254° |
| 2026-05-05 00:16 | 30.48400 | -81.21211 | 12517 ft | 188 kts | 253° |
| 2026-05-05 00:16 | 30.48027 | -81.22651 | 12513 ft | 186 kts | 254° |
| 2026-05-05 00:16 | 30.47658 | -81.24090 | 12515 ft | 184 kts | 254° |
| 2026-05-05 00:16 | 30.47200 | -81.25471 | 12509 ft | 186 kts | 237° |
| 2026-05-05 00:17 | 30.46167 | -81.26358 | 12514 ft | 191 kts | 197° |
| 2026-05-05 00:17 | 30.44837 | -81.26205 | 12520 ft | 199 kts | 160° |
| 2026-05-05 00:17 | 30.43584 | -81.25476 | 12503 ft | 202 kts | 151° |
| 2026-05-05 00:17 | 30.42407 | -81.24656 | 12508 ft | 201 kts | 150° |
| 2026-05-05 00:18 | 30.41209 | -81.23816 | 12514 ft | 202 kts | 152° |
| 2026-05-05 00:18 | 30.39998 | -81.22983 | 12513 ft | 201 kts | 153° |
| 2026-05-05 00:18 | 30.38789 | -81.22163 | 12516 ft | 200 kts | 151° |
| 2026-05-05 00:18 | 30.37594 | -81.21355 | 12514 ft | 199 kts | 151° |
| 2026-05-05 00:19 | 30.36399 | -81.20548 | 12515 ft | 199 kts | 152° |
| 2026-05-05 00:19 | 30.35198 | -81.19737 | 12515 ft | 200 kts | 152° |
| 2026-05-05 00:19 | 30.33991 | -81.18924 | 12514 ft | 201 kts | 152° |
| 2026-05-05 00:19 | 30.32785 | -81.18111 | 12513 ft | 201 kts | 153° |
| 2026-05-05 00:20 | 30.31568 | -81.17293 | 12511 ft | 202 kts | 153° |
| 2026-05-05 00:20 | 30.30361 | -81.16482 | 12509 ft | 199 kts | 152° |
| 2026-05-05 00:20 | 30.29158 | -81.15675 | 12514 ft | 199 kts | 152° |
| 2026-05-05 00:20 | 30.27949 | -81.14867 | 12511 ft | 202 kts | 153° |
| 2026-05-05 00:21 | 30.26726 | -81.14051 | 12516 ft | 202 kts | 152° |
| 2026-05-05 00:21 | 30.25521 | -81.13246 | 12514 ft | 199 kts | 152° |
| 2026-05-05 00:21 | 30.24313 | -81.12442 | 12517 ft | 202 kts | 153° |
| 2026-05-05 00:21 | 30.23095 | -81.11633 | 12521 ft | 203 kts | 153° |
| 2026-05-05 00:22 | 30.21878 | -81.10824 | 12514 ft | 199 kts | 153° |
| 2026-05-05 00:22 | 30.20674 | -81.10026 | 12514 ft | 199 kts | 153° |
| 2026-05-05 00:22 | 30.19464 | -81.09222 | 12519 ft | 202 kts | 153° |
| 2026-05-05 00:22 | 30.18242 | -81.08414 | 12518 ft | 201 kts | 152° |
| 2026-05-05 00:23 | 30.17047 | -81.07622 | 12514 ft | 200 kts | 152° |
| 2026-05-05 00:23 | 30.15843 | -81.06823 | 12517 ft | 199 kts | 152° |
| 2026-05-05 00:23 | 30.14638 | -81.06025 | 12515 ft | 199 kts | 152° |
| 2026-05-05 00:23 | 30.13438 | -81.05229 | 12523 ft | 199 kts | 152° |
| 2026-05-05 00:24 | 30.12230 | -81.04428 | 12519 ft | 201 kts | 153° |
| 2026-05-05 00:24 | 30.11014 | -81.03624 | 12521 ft | 201 kts | 153° |
| 2026-05-05 00:24 | 30.09798 | -81.02820 | 12523 ft | 201 kts | 153° |
| 2026-05-05 00:24 | 30.08585 | -81.02018 | 12522 ft | 201 kts | 153° |
| 2026-05-05 00:25 | 30.07371 | -81.01215 | 12522 ft | 202 kts | 153° |
| 2026-05-05 00:25 | 30.06152 | -81.00409 | 12519 ft | 203 kts | 154° |
| 2026-05-05 00:25 | 30.05050 | -80.99408 | 12518 ft | 208 kts | 128° |
| 2026-05-05 00:25 | 30.04593 | -80.97851 | 12520 ft | 208 kts | 86° |
| 2026-05-05 00:26 | 30.05089 | -80.96320 | 12525 ft | 205 kts | 52° |
| 2026-05-05 00:26 | 30.06027 | -80.95082 | 12518 ft | 205 kts | 42° |
| 2026-05-05 00:26 | 30.07053 | -80.93928 | 12516 ft | 205 kts | 41° |
| 2026-05-05 00:26 | 30.08075 | -80.92790 | 12516 ft | 203 kts | 42° |
| 2026-05-05 00:27 | 30.09072 | -80.91661 | 12522 ft | 203 kts | 42° |
| 2026-05-05 00:27 | 30.10167 | -80.90633 | 12519 ft | 200 kts | 21° |
| 2026-05-05 00:27 | 30.11493 | -80.90380 | 12516 ft | 193 kts | 346° |
| 2026-05-05 00:27 | 30.12632 | -80.91086 | 12519 ft | 188 kts | 310° |
| 2026-05-05 00:28 | 30.13423 | -80.92285 | 12524 ft | 187 kts | 301° |
| 2026-05-05 00:28 | 30.14105 | -80.93549 | 12515 ft | 184 kts | 299° |
| 2026-05-05 00:28 | 30.14769 | -80.94818 | 12513 ft | 187 kts | 300° |
| 2026-05-05 00:28 | 30.15453 | -80.96115 | 12521 ft | 190 kts | 300° |
| 2026-05-05 00:29 | 30.16141 | -80.97404 | 12518 ft | 186 kts | 300° |
| 2026-05-05 00:29 | 30.16814 | -80.98655 | 12516 ft | 187 kts | 301° |
| 2026-05-05 00:29 | 30.17512 | -80.99951 | 12521 ft | 191 kts | 301° |
| 2026-05-05 00:29 | 30.18213 | -81.01248 | 12523 ft | 188 kts | 300° |
| 2026-05-05 00:30 | 30.18907 | -81.02527 | 12520 ft | 186 kts | 300° |
| 2026-05-05 00:30 | 30.19361 | -81.03364 | 12519 ft | 185 kts | 300° |
| 2026-05-05 00:30 | 30.20054 | -81.04639 | 12518 ft | 189 kts | 301° |
| 2026-05-05 00:30 | 30.20972 | -81.06326 | 12511 ft | 185 kts | 300° |
| 2026-05-05 00:31 | 30.21434 | -81.07177 | 12517 ft | 186 kts | 300° |
| 2026-05-05 00:31 | 30.22349 | -81.08862 | 12516 ft | 186 kts | 301° |
| 2026-05-05 00:31 | 30.22819 | -81.09727 | 12513 ft | 189 kts | 301° |
| 2026-05-05 00:31 | 30.23517 | -81.11012 | 12512 ft | 187 kts | 300° |
| 2026-05-05 00:32 | 30.24208 | -81.12282 | 12515 ft | 188 kts | 300° |
| 2026-05-05 00:32 | 30.24905 | -81.13564 | 12516 ft | 190 kts | 301° |
| 2026-05-05 00:32 | 30.25609 | -81.14862 | 12512 ft | 191 kts | 301° |
| 2026-05-05 00:32 | 30.26308 | -81.16151 | 12512 ft | 186 kts | 300° |
| 2026-05-05 00:33 | 30.26994 | -81.17415 | 12513 ft | 186 kts | 300° |
| 2026-05-05 00:33 | 30.27686 | -81.18691 | 12513 ft | 188 kts | 300° |
| 2026-05-05 00:33 | 30.28379 | -81.19970 | 12513 ft | 185 kts | 300° |
| 2026-05-05 00:33 | 30.29061 | -81.21227 | 12512 ft | 184 kts | 300° |
| 2026-05-05 00:34 | 30.29736 | -81.22473 | 12512 ft | 187 kts | 300° |
| 2026-05-05 00:34 | 30.30429 | -81.23753 | 12514 ft | 189 kts | 301° |
| 2026-05-05 00:34 | 30.31127 | -81.25042 | 12513 ft | 187 kts | 300° |
| 2026-05-05 00:34 | 30.31816 | -81.26314 | 12513 ft | 188 kts | 301° |
| 2026-05-05 00:35 | 30.32513 | -81.27603 | 12514 ft | 187 kts | 300° |
| 2026-05-05 00:35 | 30.33203 | -81.28878 | 12516 ft | 189 kts | 301° |
| 2026-05-05 00:35 | 30.33903 | -81.30174 | 12514 ft | 188 kts | 300° |
| 2026-05-05 00:35 | 30.34593 | -81.31449 | 12508 ft | 187 kts | 300° |
| 2026-05-05 00:36 | 30.35285 | -81.32731 | 12516 ft | 188 kts | 300° |
| 2026-05-05 00:36 | 30.35978 | -81.34016 | 12512 ft | 187 kts | 300° |
| 2026-05-05 00:36 | 30.36660 | -81.35282 | 12511 ft | 185 kts | 299° |
| 2026-05-05 00:36 | 30.37109 | -81.36655 | 12509 ft | 183 kts | 271° |
| 2026-05-05 00:37 | 30.36757 | -81.38043 | 12514 ft | 185 kts | 232° |
| 2026-05-05 00:37 | 30.35702 | -81.38893 | 12522 ft | 191 kts | 205° |
| 2026-05-05 00:37 | 30.34448 | -81.39456 | 12515 ft | 193 kts | 201° |
| 2026-05-05 00:37 | 30.33177 | -81.39951 | 12512 ft | 192 kts | 201° |
| 2026-05-05 00:38 | 30.31904 | -81.40424 | 12512 ft | 192 kts | 200° |
| 2026-05-05 00:38 | 30.30628 | -81.40884 | 12513 ft | 192 kts | 199° |
| 2026-05-05 00:38 | 30.29354 | -81.41330 | 12509 ft | 191 kts | 197° |
| 2026-05-05 00:38 | 30.28026 | -81.41342 | 12515 ft | 197 kts | 163° |
| 2026-05-05 00:39 | 30.26926 | -81.40404 | 12523 ft | 202 kts | 123° |
| 2026-05-05 00:39 | 30.26471 | -81.38862 | 12524 ft | 205 kts | 99° |
| 2026-05-05 00:39 | 30.26302 | -81.37205 | 12515 ft | 209 kts | 95° |
| 2026-05-05 00:39 | 30.26203 | -81.35567 | 12507 ft | 205 kts | 94° |
| 2026-05-05 00:40 | 30.26132 | -81.33920 | 12508 ft | 204 kts | 92° |
| 2026-05-05 00:40 | 30.26081 | -81.32294 | 12511 ft | 206 kts | 92° |
| 2026-05-05 00:40 | 30.26036 | -81.30625 | 12514 ft | 206 kts | 92° |
| 2026-05-05 00:40 | 30.25985 | -81.28965 | 12517 ft | 207 kts | 92° |
| 2026-05-05 00:41 | 30.25920 | -81.27308 | 12506 ft | 207 kts | 93° |
| 2026-05-05 00:41 | 30.25842 | -81.25686 | 12510 ft | 203 kts | 94° |
| 2026-05-05 00:41 | 30.25753 | -81.24046 | 12515 ft | 207 kts | 94° |
| 2026-05-05 00:41 | 30.25654 | -81.22377 | 12514 ft | 208 kts | 94° |
| 2026-05-05 00:42 | 30.25552 | -81.20727 | 12515 ft | 206 kts | 94° |
| 2026-05-05 00:42 | 30.25445 | -81.19074 | 12512 ft | 206 kts | 94° |
| 2026-05-05 00:42 | 30.25337 | -81.17443 | 12511 ft | 203 kts | 95° |
| 2026-05-05 00:42 | 30.25226 | -81.15793 | 12518 ft | 206 kts | 95° |
| 2026-05-05 00:43 | 30.25117 | -81.14175 | 12512 ft | 209 kts | 95° |
| 2026-05-05 00:43 | 30.25004 | -81.12511 | 12510 ft | 205 kts | 95° |
| 2026-05-05 00:43 | 30.24891 | -81.10861 | 12511 ft | 205 kts | 95° |
| 2026-05-05 00:43 | 30.24780 | -81.09217 | 12512 ft | 205 kts | 95° |
| 2026-05-05 00:44 | 30.24666 | -81.07559 | 12511 ft | 207 kts | 95° |
| 2026-05-05 00:44 | 30.24551 | -81.05892 | 12514 ft | 210 kts | 95° |
| 2026-05-05 00:44 | 30.24437 | -81.04230 | 12511 ft | 205 kts | 95° |
| 2026-05-05 00:44 | 30.24324 | -81.02604 | 12516 ft | 203 kts | 95° |
| 2026-05-05 00:45 | 30.24211 | -81.00964 | 12515 ft | 206 kts | 95° |
| 2026-05-05 00:45 | 30.24096 | -80.99305 | 12512 ft | 208 kts | 95° |
| 2026-05-05 00:45 | 30.23982 | -80.97647 | 12512 ft | 208 kts | 95° |
| 2026-05-05 00:45 | 30.23867 | -80.95993 | 12514 ft | 206 kts | 95° |
| 2026-05-05 00:46 | 30.23753 | -80.94353 | 12515 ft | 203 kts | 95° |
| 2026-05-05 00:46 | 30.23639 | -80.92718 | 12519 ft | 207 kts | 95° |
| 2026-05-05 00:46 | 30.23523 | -80.91054 | 12515 ft | 209 kts | 95° |
| 2026-05-05 00:46 | 30.23407 | -80.89396 | 12521 ft | 208 kts | 95° |
| 2026-05-05 00:47 | 30.23302 | -80.87735 | 12518 ft | 207 kts | 89° |
| 2026-05-05 00:47 | 30.23617 | -80.86151 | 12513 ft | 202 kts | 56° |
| 2026-05-05 00:47 | 30.24650 | -80.85102 | 12521 ft | 199 kts | 15° |
| 2026-05-05 00:47 | 30.26006 | -80.84960 | 12524 ft | 196 kts | 351° |
| 2026-05-05 00:48 | 30.27346 | -80.85192 | 12520 ft | 194 kts | 346° |
| 2026-05-05 00:48 | 30.28667 | -80.85490 | 12518 ft | 193 kts | 345° |
| 2026-05-05 00:48 | 30.29987 | -80.85789 | 12519 ft | 193 kts | 346° |
| 2026-05-05 00:48 | 30.31310 | -80.86078 | 12520 ft | 194 kts | 347° |
| 2026-05-05 00:49 | 30.32610 | -80.86456 | 12516 ft | 191 kts | 332° |
| 2026-05-05 00:49 | 30.33562 | -80.87451 | 12518 ft | 183 kts | 294° |
| 2026-05-05 00:49 | 30.33738 | -80.88870 | 12522 ft | 182 kts | 259° |
| 2026-05-05 00:49 | 30.33358 | -80.90275 | 12520 ft | 186 kts | 249° |
| 2026-05-05 00:50 | 30.32852 | -80.91690 | 12532 ft | 197 kts | 248° |
| 2026-05-05 00:50 | 30.32297 | -80.93185 | 12527 ft | 212 kts | 247° |
| 2026-05-05 00:50 | 30.31700 | -80.94781 | 12521 ft | 216 kts | 247° |
| 2026-05-05 00:50 | 30.31111 | -80.96340 | 12512 ft | 209 kts | 247° |
| 2026-05-05 00:51 | 30.30517 | -80.97887 | 12516 ft | 210 kts | 247° |
| 2026-05-05 00:51 | 30.29921 | -80.99425 | 12517 ft | 210 kts | 246° |
| 2026-05-05 00:51 | 30.29320 | -81.00965 | 12515 ft | 211 kts | 246° |
| 2026-05-05 00:51 | 30.28716 | -81.02513 | 12514 ft | 210 kts | 246° |
| 2026-05-05 00:52 | 30.28110 | -81.04064 | 12513 ft | 213 kts | 246° |
| 2026-05-05 00:52 | 30.27500 | -81.05633 | 12518 ft | 212 kts | 246° |
| 2026-05-05 00:52 | 30.26902 | -81.07179 | 12509 ft | 211 kts | 247° |
| 2026-05-05 00:52 | 30.26309 | -81.08723 | 12508 ft | 208 kts | 247° |
| 2026-05-05 00:53 | 30.25721 | -81.10255 | 12509 ft | 209 kts | 247° |
| 2026-05-05 00:53 | 30.25129 | -81.11806 | 12511 ft | 211 kts | 247° |
| 2026-05-05 00:53 | 30.24545 | -81.13338 | 12513 ft | 212 kts | 246° |
| 2026-05-05 00:53 | 30.23948 | -81.14905 | 12508 ft | 212 kts | 246° |
| 2026-05-05 00:54 | 30.23357 | -81.16457 | 12512 ft | 209 kts | 246° |
| 2026-05-05 00:54 | 30.22766 | -81.18010 | 12513 ft | 211 kts | 246° |
| 2026-05-05 00:54 | 30.22180 | -81.19550 | 12515 ft | 208 kts | 247° |
| 2026-05-05 00:54 | 30.21594 | -81.21087 | 12515 ft | 212 kts | 246° |
| 2026-05-05 00:55 | 30.21002 | -81.22642 | 12520 ft | 210 kts | 247° |
| 2026-05-05 00:55 | 30.20408 | -81.24205 | 12518 ft | 214 kts | 246° |
| 2026-05-05 00:55 | 30.19809 | -81.25776 | 12523 ft | 211 kts | 247° |
| 2026-05-05 00:55 | 30.19220 | -81.27322 | 12520 ft | 211 kts | 246° |
| 2026-05-05 00:56 | 30.18639 | -81.28845 | 12521 ft | 209 kts | 246° |
| 2026-05-05 00:56 | 30.18046 | -81.30400 | 12522 ft | 211 kts | 246° |
| 2026-05-05 00:56 | 30.17449 | -81.31961 | 12521 ft | 212 kts | 247° |
| 2026-05-05 00:56 | 30.16854 | -81.33520 | 12517 ft | 212 kts | 246° |
| 2026-05-05 00:57 | 30.16256 | -81.35087 | 12525 ft | 214 kts | 247° |
| 2026-05-05 00:57 | 30.15643 | -81.36636 | 12513 ft | 211 kts | 240° |
| 2026-05-05 00:57 | 30.14610 | -81.37825 | 12520 ft | 214 kts | 208° |
| 2026-05-05 00:57 | 30.13147 | -81.38068 | 12522 ft | 220 kts | 168° |
| 2026-05-05 00:58 | 30.11755 | -81.37301 | 12530 ft | 225 kts | 149° |
| 2026-05-05 00:58 | 30.10476 | -81.36246 | 12523 ft | 226 kts | 146° |
| 2026-05-05 00:58 | 30.09217 | -81.35157 | 12526 ft | 226 kts | 145° |
| 2026-05-05 00:58 | 30.07968 | -81.34065 | 12528 ft | 225 kts | 144° |
| 2026-05-05 00:59 | 30.06934 | -81.32711 | 12526 ft | 228 kts | 116° |
| 2026-05-05 00:59 | 30.06681 | -81.30918 | 12531 ft | 231 kts | 79° |
| 2026-05-05 00:59 | 30.07403 | -81.29295 | 12532 ft | 230 kts | 45° |
| 2026-05-05 00:59 | 30.08605 | -81.28080 | 12530 ft | 229 kts | 35° |
| 2026-05-05 01:00 | 30.09870 | -81.26978 | 12522 ft | 229 kts | 34° |
| 2026-05-05 01:00 | 30.11129 | -81.25880 | 12525 ft | 229 kts | 36° |
| 2026-05-05 01:00 | 30.12381 | -81.24766 | 12526 ft | 227 kts | 35° |
| 2026-05-05 01:00 | 30.13632 | -81.23637 | 12525 ft | 229 kts | 36° |
| 2026-05-05 01:01 | 30.14882 | -81.22502 | 12522 ft | 227 kts | 37° |
| 2026-05-05 01:01 | 30.16118 | -81.21371 | 12518 ft | 227 kts | 36° |
| 2026-05-05 01:01 | 30.17361 | -81.20232 | 12517 ft | 228 kts | 36° |
| 2026-05-05 01:01 | 30.18595 | -81.19099 | 12516 ft | 227 kts | 36° |
| 2026-05-05 01:02 | 30.19830 | -81.17962 | 12522 ft | 228 kts | 37° |
| 2026-05-05 01:02 | 30.21070 | -81.16819 | 12517 ft | 227 kts | 37° |
| 2026-05-05 01:02 | 30.22299 | -81.15683 | 12516 ft | 227 kts | 36° |
| 2026-05-05 01:02 | 30.23525 | -81.14551 | 12517 ft | 228 kts | 36° |
| 2026-05-05 01:03 | 30.24756 | -81.13411 | 12514 ft | 227 kts | 36° |
| 2026-05-05 01:03 | 30.25993 | -81.12270 | 12518 ft | 229 kts | 37° |
| 2026-05-05 01:03 | 30.27232 | -81.11126 | 12515 ft | 227 kts | 37° |
| 2026-05-05 01:03 | 30.28465 | -81.09984 | 12514 ft | 228 kts | 37° |
| 2026-05-05 01:04 | 30.29706 | -81.08836 | 12515 ft | 228 kts | 36° |
| 2026-05-05 01:04 | 30.32179 | -81.06547 | 12516 ft | 229 kts | 36° |
| 2026-05-05 01:04 | 30.33416 | -81.05401 | 12521 ft | 227 kts | 37° |
| 2026-05-05 01:05 | 30.34649 | -81.04257 | 12519 ft | 228 kts | 36° |
| 2026-05-05 01:05 | 30.35892 | -81.03106 | 12518 ft | 228 kts | 37° |
| 2026-05-05 01:05 | 30.37125 | -81.01964 | 12516 ft | 227 kts | 36° |
| 2026-05-05 01:05 | 30.38360 | -81.00819 | 12512 ft | 229 kts | 36° |
| 2026-05-05 01:06 | 30.39586 | -80.99682 | 12519 ft | 227 kts | 37° |
| 2026-05-05 01:06 | 30.40818 | -80.98537 | 12518 ft | 227 kts | 36° |
| 2026-05-05 01:06 | 30.42105 | -80.97473 | 12516 ft | 226 kts | 22° |
| 2026-05-05 01:06 | 30.43610 | -80.97141 | 12517 ft | 219 kts | 349° |
| 2026-05-05 01:07 | 30.44963 | -80.97842 | 12516 ft | 213 kts | 313° |
| 2026-05-05 01:07 | 30.45799 | -80.99227 | 12518 ft | 209 kts | 295° |
| 2026-05-05 01:07 | 30.46436 | -81.00747 | 12516 ft | 211 kts | 294° |
| 2026-05-05 01:07 | 30.47054 | -81.02301 | 12521 ft | 211 kts | 293° |
| 2026-05-05 01:08 | 30.47672 | -81.03865 | 12519 ft | 213 kts | 293° |
| 2026-05-05 01:08 | 30.48125 | -81.05485 | 12519 ft | 212 kts | 273° |
| 2026-05-05 01:08 | 30.47813 | -81.07126 | 12519 ft | 212 kts | 239° |
| 2026-05-05 01:08 | 30.46715 | -81.08225 | 12515 ft | 213 kts | 206° |
| 2026-05-05 01:09 | 30.45294 | -81.08748 | 12521 ft | 217 kts | 197° |
| 2026-05-05 01:09 | 30.43837 | -81.09127 | 12522 ft | 218 kts | 193° |
| 2026-05-05 01:09 | 30.42346 | -81.09450 | 12522 ft | 218 kts | 193° |
| 2026-05-05 01:09 | 30.40851 | -81.09728 | 12522 ft | 217 kts | 191° |
| 2026-05-05 01:10 | 30.39355 | -81.09979 | 12524 ft | 217 kts | 191° |
| 2026-05-05 01:10 | 30.37857 | -81.10230 | 12520 ft | 218 kts | 190° |
| 2026-05-05 01:10 | 30.36360 | -81.10498 | 12519 ft | 218 kts | 191° |
| 2026-05-05 01:10 | 30.34860 | -81.10788 | 12520 ft | 218 kts | 193° |
| 2026-05-05 01:11 | 30.33368 | -81.11091 | 12517 ft | 218 kts | 193° |
| 2026-05-05 01:11 | 30.31881 | -81.11404 | 12518 ft | 217 kts | 193° |
| 2026-05-05 01:11 | 30.30416 | -81.11717 | 12521 ft | 218 kts | 193° |
| 2026-05-05 01:11 | 30.28927 | -81.12041 | 12519 ft | 218 kts | 193° |
| 2026-05-05 01:12 | 30.27436 | -81.12367 | 12518 ft | 217 kts | 193° |
| 2026-05-05 01:12 | 30.25952 | -81.12692 | 12516 ft | 217 kts | 193° |
| 2026-05-05 01:12 | 30.24474 | -81.13017 | 12519 ft | 216 kts | 194° |
| 2026-05-05 01:12 | 30.22992 | -81.13344 | 12522 ft | 217 kts | 194° |
| 2026-05-05 01:13 | 30.21502 | -81.13673 | 12521 ft | 218 kts | 193° |
| 2026-05-05 01:13 | 30.20013 | -81.14002 | 12523 ft | 217 kts | 193° |
| 2026-05-05 01:13 | 30.18528 | -81.14330 | 12521 ft | 217 kts | 194° |
| 2026-05-05 01:13 | 30.17047 | -81.14657 | 12526 ft | 216 kts | 194° |
| 2026-05-05 01:14 | 30.15565 | -81.14984 | 12523 ft | 217 kts | 194° |
| 2026-05-05 01:14 | 30.14096 | -81.15309 | 12526 ft | 218 kts | 192° |
| 2026-05-05 01:14 | 30.12604 | -81.15637 | 12528 ft | 217 kts | 194° |
| 2026-05-05 01:14 | 30.11117 | -81.15964 | 12532 ft | 217 kts | 194° |
| 2026-05-05 01:15 | 30.09638 | -81.16290 | 12524 ft | 217 kts | 194° |
| 2026-05-05 01:15 | 30.08157 | -81.16617 | 12528 ft | 217 kts | 194° |
| 2026-05-05 01:15 | 30.06674 | -81.16944 | 12531 ft | 217 kts | 193° |
| 2026-05-05 01:15 | 30.05187 | -81.17271 | 12532 ft | 217 kts | 194° |
| 2026-05-05 01:16 | 30.03703 | -81.17597 | 12534 ft | 217 kts | 194° |
| 2026-05-05 01:16 | 30.02224 | -81.17923 | 12534 ft | 216 kts | 194° |
| 2026-05-05 01:16 | 30.00743 | -81.18248 | 12538 ft | 217 kts | 194° |
| 2026-05-05 01:16 | 29.99267 | -81.18605 | 12528 ft | 216 kts | 204° |
| 2026-05-05 01:17 | 29.98151 | -81.19662 | 12537 ft | 208 kts | 244° |
| 2026-05-05 01:17 | 29.97946 | -81.21278 | 12542 ft | 211 kts | 283° |
| 2026-05-05 01:17 | 29.98746 | -81.22672 | 12541 ft | 215 kts | 323° |
| 2026-05-05 01:17 | 30.00181 | -81.23129 | 12535 ft | 221 kts | 4° |
| 2026-05-05 01:18 | 30.01581 | -81.22391 | 12538 ft | 229 kts | 43° |
| 2026-05-05 01:18 | 30.02164 | -81.21367 | 12543 ft | 234 kts | 70° |
| 2026-05-05 01:18 | 30.02217 | -81.19530 | 12539 ft | 232 kts | 109° |
| 2026-05-05 01:18 | 30.01651 | -81.17806 | 12525 ft | 231 kts | 101° |
| 2026-05-05 01:19 | 30.02117 | -81.15479 | 12533 ft | 231 kts | 48° |
| 2026-05-05 01:19 | 30.03416 | -81.14456 | 12537 ft | 226 kts | 15° |
| 2026-05-05 01:19 | 30.04944 | -81.14318 | 12531 ft | 220 kts | 349° |
| 2026-05-05 01:19 | 30.05951 | -81.14544 | 12528 ft | 216 kts | 334° |
| 2026-05-05 01:20 | 30.07080 | -81.15598 | 12538 ft | 210 kts | 303° |
| 2026-05-05 01:20 | 30.07877 | -81.17022 | 12536 ft | 212 kts | 300° |
| 2026-05-05 01:20 | 30.08681 | -81.18445 | 12532 ft | 210 kts | 302° |
| 2026-05-05 01:20 | 30.09525 | -81.19797 | 12526 ft | 212 kts | 311° |
| 2026-05-05 01:21 | 30.10829 | -81.20583 | 12532 ft | 220 kts | 351° |
| 2026-05-05 01:21 | 30.12283 | -81.21026 | 12534 ft | 215 kts | 323° |
| 2026-05-05 01:21 | 30.13305 | -81.22239 | 12532 ft | 212 kts | 300° |
| 2026-05-05 01:21 | 30.13957 | -81.23791 | 12540 ft | 223 kts | 291° |
| 2026-05-05 01:22 | 30.14545 | -81.25543 | 12539 ft | 240 kts | 290° |
| 2026-05-05 01:22 | 30.15152 | -81.27336 | 12532 ft | 238 kts | 290° |
| 2026-05-05 01:22 | 30.15949 | -81.28991 | 12522 ft | 238 kts | 314° |
| 2026-05-05 01:22 | 30.17418 | -81.29858 | 12527 ft | 244 kts | 350° |
| 2026-05-05 01:23 | 30.19096 | -81.29546 | 12530 ft | 251 kts | 26° |
| 2026-05-05 01:23 | 30.20331 | -81.28149 | 12516 ft | 254 kts | 62° |
| 2026-05-05 01:23 | 30.20650 | -81.26179 | 12523 ft | 254 kts | 98° |
| 2026-05-05 01:23 | 30.19965 | -81.24321 | 12536 ft | 252 kts | 126° |
| 2026-05-05 01:24 | 30.18945 | -81.22660 | 12527 ft | 255 kts | 126° |
| 2026-05-05 01:24 | 30.18025 | -81.20895 | 12526 ft | 256 kts | 120° |
| 2026-05-05 01:24 | 30.17247 | -81.19079 | 12527 ft | 254 kts | 117° |
| 2026-05-05 01:24 | 30.16180 | -81.17495 | 12522 ft | 250 kts | 148° |
| 2026-05-05 01:25 | 30.14577 | -81.16869 | 12529 ft | 243 kts | 184° |
| 2026-05-05 01:25 | 30.13012 | -81.17442 | 12527 ft | 238 kts | 219° |
| 2026-05-05 01:25 | 30.12084 | -81.18966 | 12532 ft | 235 kts | 255° |
| 2026-05-05 01:25 | 30.12147 | -81.20810 | 12525 ft | 236 kts | 290° |
| 2026-05-05 01:26 | 30.12885 | -81.22445 | 12520 ft | 217 kts | 299° |
| 2026-05-05 01:26 | 30.13607 | -81.23938 | 12525 ft | 210 kts | 296° |
| 2026-05-05 01:26 | 30.14263 | -81.25441 | 12534 ft | 211 kts | 294° |
| 2026-05-05 01:26 | 30.14879 | -81.26971 | 12530 ft | 211 kts | 293° |
| 2026-05-05 01:27 | 30.15712 | -81.28363 | 12532 ft | 215 kts | 318° |
| 2026-05-05 01:27 | 30.17072 | -81.29075 | 12519 ft | 216 kts | 352° |
| 2026-05-05 01:27 | 30.18494 | -81.28754 | 12116 ft | 216 kts | 30° |
| 2026-05-05 01:27 | 30.19450 | -81.27434 | 11546 ft | 222 kts | 72° |
| 2026-05-05 01:28 | 30.19468 | -81.25675 | 10988 ft | 224 kts | 107° |
| 2026-05-05 01:28 | 30.18918 | -81.24004 | 10554 ft | 220 kts | 114° |
| 2026-05-05 01:28 | 30.18324 | -81.22385 | 10124 ft | 218 kts | 112° |
| 2026-05-05 01:28 | 30.17769 | -81.20764 | 9701 ft | 215 kts | 111° |
| 2026-05-05 01:29 | 30.17242 | -81.19156 | 9192 ft | 214 kts | 111° |
| 2026-05-05 01:29 | 30.16522 | -81.17675 | 8711 ft | 212 kts | 135° |
| 2026-05-05 01:29 | 30.15262 | -81.16869 | 8211 ft | 208 kts | 173° |
| 2026-05-05 01:29 | 30.13871 | -81.17123 | 7725 ft | 204 kts | 210° |
| 2026-05-05 01:30 | 30.12886 | -81.18246 | 7251 ft | 199 kts | 244° |
| 2026-05-05 01:30 | 30.12644 | -81.19768 | 6767 ft | 197 kts | 279° |
| 2026-05-05 01:30 | 30.13008 | -81.21273 | 6324 ft | 194 kts | 291° |
| 2026-05-05 01:30 | 30.13493 | -81.22727 | 5826 ft | 194 kts | 292° |
| 2026-05-05 01:31 | 30.13990 | -81.24157 | 5387 ft | 190 kts | 292° |
| 2026-05-05 01:31 | 30.14480 | -81.25569 | 4966 ft | 186 kts | 292° |
| 2026-05-05 01:31 | 30.14960 | -81.26959 | 4442 ft | 188 kts | 291° |
| 2026-05-05 01:31 | 30.15627 | -81.28282 | 3822 ft | 196 kts | 318° |
| 2026-05-05 01:32 | 30.16862 | -81.28825 | 3335 ft | 194 kts | 5° |
| 2026-05-05 01:32 | 30.17995 | -81.28185 | 3037 ft | 174 kts | 57° |
| 2026-05-05 01:32 | 30.18213 | -81.27000 | 2969 ft | 140 kts | 113° |
| 2026-05-05 01:32 | 30.17559 | -81.26346 | 2656 ft | 134 kts | 167° |
| 2026-05-05 01:33 | 30.16594 | -81.26681 | 2149 ft | 151 kts | 217° |
| 2026-05-05 01:33 | 30.16150 | -81.27724 | 1943 ft | 147 kts | 262° |
| 2026-05-05 01:33 | 30.16331 | -81.28828 | 1713 ft | 140 kts | 300° |
| 2026-05-05 01:33 | 30.17101 | -81.29720 | 1599 ft | 168 kts | 326° |
| 2026-05-05 01:34 | 30.18043 | -81.30494 | 1445 ft | 176 kts | 330° |
| 2026-05-05 01:34 | 30.19091 | -81.31271 | 1760 ft | 192 kts | 330° |
| 2026-05-05 01:34 | 30.20261 | -81.32080 | 2037 ft | 183 kts | 331° |
| 2026-05-05 01:34 | 30.21284 | -81.32742 | 2152 ft | 157 kts | 334° |
| 2026-05-05 01:35 | 30.22153 | -81.33565 | 1831 ft | 166 kts | 302° |
| 2026-05-05 01:35 | 30.22497 | -81.34779 | 1953 ft | 161 kts | 266° |
| 2026-05-05 01:35 | 30.22284 | -81.36040 | 2059 ft | 159 kts | 242° |
| 2026-05-05 01:35 | 30.21746 | -81.37257 | 2147 ft | 189 kts | 238° |
| 2026-05-05 01:36 | 30.21091 | -81.38654 | 1974 ft | 207 kts | 238° |
| 2026-05-05 01:36 | 30.20415 | -81.40099 | 1988 ft | 201 kts | 237° |
| 2026-05-05 01:36 | 30.19748 | -81.41507 | 2016 ft | 197 kts | 238° |
| 2026-05-05 01:36 | 30.19108 | -81.42892 | 2061 ft | 197 kts | 238° |
| 2026-05-05 01:37 | 30.18463 | -81.44273 | 2127 ft | 192 kts | 237° |
| 2026-05-05 01:37 | 30.17823 | -81.45599 | 2074 ft | 195 kts | 237° |
| 2026-05-05 01:37 | 30.17167 | -81.47004 | 2035 ft | 199 kts | 238° |
| 2026-05-05 01:37 | 30.16501 | -81.48428 | 2096 ft | 203 kts | 237° |
| 2026-05-05 01:38 | 30.15790 | -81.49867 | 2068 ft | 208 kts | 236° |
| 2026-05-05 01:38 | 30.15055 | -81.51325 | 2068 ft | 209 kts | 236° |
| 2026-05-05 01:38 | 30.14310 | -81.52753 | 2189 ft | 204 kts | 234° |
| 2026-05-05 01:38 | 30.13514 | -81.54031 | 2087 ft | 188 kts | 227° |
| 2026-05-05 01:39 | 30.12696 | -81.55205 | 2059 ft | 193 kts | 226° |
| 2026-05-05 01:39 | 30.11829 | -81.56417 | 2039 ft | 195 kts | 226° |
| 2026-05-05 01:39 | 30.11015 | -81.57564 | 1999 ft | 179 kts | 226° |
| 2026-05-05 01:39 | 30.10182 | -81.58729 | 2005 ft | 183 kts | 226° |
| 2026-05-05 01:40 | 30.09406 | -81.59833 | 2000 ft | 176 kts | 226° |
| 2026-05-05 01:40 | 30.08641 | -81.60917 | 2010 ft | 177 kts | 227° |
| 2026-05-05 01:40 | 30.08000 | -81.62134 | 2013 ft | 179 kts | 240° |
| 2026-05-05 01:40 | 30.07520 | -81.63455 | 2011 ft | 178 kts | 246° |
| 2026-05-05 01:41 | 30.07112 | -81.64823 | 2013 ft | 181 kts | 246° |
| 2026-05-05 01:41 | 30.06714 | -81.66196 | 2022 ft | 180 kts | 246° |
| 2026-05-05 01:41 | 30.06331 | -81.67581 | 2010 ft | 180 kts | 247° |
| 2026-05-05 01:41 | 30.05995 | -81.68994 | 2009 ft | 185 kts | 252° |
| 2026-05-05 01:42 | 30.05721 | -81.70441 | 2010 ft | 185 kts | 255° |
| 2026-05-05 01:42 | 30.05535 | -81.71887 | 2008 ft | 182 kts | 262° |
| 2026-05-05 01:42 | 30.05514 | -81.73348 | 2006 ft | 183 kts | 268° |
| 2026-05-05 01:42 | 30.05553 | -81.74819 | 2011 ft | 188 kts | 269° |
| 2026-05-05 01:43 | 30.05616 | -81.76314 | 2036 ft | 188 kts | 270° |
| 2026-05-05 01:43 | 30.05695 | -81.77811 | 2004 ft | 188 kts | 270° |
| 2026-05-05 01:43 | 30.05773 | -81.79271 | 2088 ft | 179 kts | 271° |
| 2026-05-05 01:43 | 30.05850 | -81.80688 | 2010 ft | 178 kts | 271° |
| 2026-05-05 01:44 | 30.05948 | -81.82110 | 2018 ft | 176 kts | 272° |
| 2026-05-05 01:44 | 30.06055 | -81.83531 | 2021 ft | 177 kts | 272° |
| 2026-05-05 01:44 | 30.06281 | -81.84870 | 1972 ft | 170 kts | 293° |
| 2026-05-05 01:44 | 30.06960 | -81.85959 | 1977 ft | 167 kts | 318° |
| 2026-05-05 01:45 | 30.07820 | -81.86843 | 1904 ft | 163 kts | 326° |
| 2026-05-05 01:45 | 30.08792 | -81.87449 | 1781 ft | 158 kts | 349° |
| 2026-05-05 01:45 | 30.09841 | -81.87650 | 1680 ft | 151 kts | 2° |
| 2026-05-05 01:45 | 30.10904 | -81.87674 | 1516 ft | 160 kts | 8° |
| 2026-05-05 01:46 | 30.12035 | -81.87624 | 1368 ft | 164 kts | 8° |
| 2026-05-05 01:46 | 30.13193 | -81.87604 | 1328 ft | 160 kts | 5° |
| 2026-05-05 01:46 | 30.14258 | -81.87652 | 1083 ft | 148 kts | 4° |
| 2026-05-05 01:46 | 30.15256 | -81.87649 | 914 ft | 143 kts | 7° |
| 2026-05-05 01:47 | 30.16253 | -81.87636 | 703 ft | 146 kts | 2° |
| 2026-05-05 01:47 | 30.17270 | -81.87632 | 549 ft | 146 kts | 1° |
| 2026-05-05 01:47 | 30.18228 | -81.87612 | 376 ft | 136 kts | 4° |
| 2026-05-05 01:47 | 30.19166 | -81.87585 | 298 ft | 141 kts | 2° |
| 2026-05-05 01:48 | 30.20130 | -81.87576 | 209 ft | 139 kts | 2° |
| 2026-05-05 01:48 | 30.21074 | -81.87562 | 139 ft | 132 kts | 360° |
| 2026-05-05 01:48 | 30.21903 | -81.87618 | 100 ft | 119 kts | 4° |
| 2026-05-05 01:48 | 30.22630 | -81.87642 | 229 ft | 132 kts | 360° |
| 2026-05-05 01:49 | 30.23522 | -81.87626 | 488 ft | 126 kts | 3° |
| 2026-05-05 01:49 | 30.24376 | -81.87667 | 748 ft | 120 kts | 1° |
| 2026-05-05 01:49 | 30.25213 | -81.87714 | 848 ft | 128 kts | 5° |
| 2026-05-05 01:49 | 30.25252 | -81.87715 | 875 ft | 129 kts | 5° |
| 2026-05-05 01:50 | 30.25961 | -81.87637 | 1037 ft | 133 kts | 27° |
| 2026-05-05 01:50 | 30.26559 | -81.86914 | 1146 ft | 121 kts | 79° |
| 2026-05-05 01:50 | 30.26607 | -81.85879 | 1134 ft | 133 kts | 93° |
| 2026-05-05 01:50 | 30.26527 | -81.84864 | 1226 ft | 126 kts | 111° |
| 2026-05-05 01:51 | 30.25953 | -81.84104 | 1235 ft | 129 kts | 152° |
| 2026-05-05 01:51 | 30.25057 | -81.83949 | 1255 ft | 137 kts | 172° |
| 2026-05-05 01:51 | 30.24083 | -81.83917 | 1118 ft | 138 kts | 173° |
| 2026-05-05 01:51 | 30.23141 | -81.83920 | 982 ft | 139 kts | 175° |
| 2026-05-05 01:52 | 30.22190 | -81.83925 | 908 ft | 138 kts | 176° |
| 2026-05-05 01:52 | 30.21542 | -81.83910 | 889 ft | 137 kts | 175° |
| 2026-05-05 01:52 | 30.21205 | -81.83903 | 878 ft | 137 kts | 174° |
| 2026-05-05 01:52 | 30.20275 | -81.83874 | 883 ft | 132 kts | 173° |
| 2026-05-05 01:53 | 30.19362 | -81.83823 | 824 ft | 130 kts | 172° |
| 2026-05-05 01:53 | 30.18478 | -81.83776 | 861 ft | 133 kts | 172° |
| 2026-05-05 01:53 | 30.17537 | -81.83714 | 1009 ft | 137 kts | 174° |
| 2026-05-05 01:53 | 30.16571 | -81.83737 | 1149 ft | 136 kts | 175° |
| 2026-05-05 01:54 | 30.15629 | -81.83674 | 1163 ft | 137 kts | 171° |
| 2026-05-05 01:54 | 30.14744 | -81.83772 | 1176 ft | 132 kts | 193° |
| 2026-05-05 01:54 | 30.13996 | -81.84425 | 1172 ft | 143 kts | 227° |
| 2026-05-05 01:54 | 30.13638 | -81.85518 | 1125 ft | 148 kts | 259° |
| 2026-05-05 01:55 | 30.13730 | -81.86681 | 1041 ft | 150 kts | 294° |
| 2026-05-05 01:55 | 30.14451 | -81.87482 | 953 ft | 146 kts | 346° |
| 2026-05-05 01:55 | 30.15443 | -81.87566 | 866 ft | 150 kts | 8° |
| 2026-05-05 01:55 | 30.16470 | -81.87512 | 673 ft | 147 kts | 5° |
| 2026-05-05 01:56 | 30.17480 | -81.87451 | 547 ft | 147 kts | 5° |
| 2026-05-05 01:56 | 30.18501 | -81.87399 | 365 ft | 147 kts | 4° |
| 2026-05-05 01:56 | 30.19464 | -81.87389 | 251 ft | 134 kts | 1° |
| 2026-05-05 01:56 | 30.20347 | -81.87400 | 109 ft | 123 kts | 1° |
| 2026-05-05 01:57 | 30.20772 | -81.87398 | 87 ft | 109 kts | 2° |
| 2026-05-05 01:57 | 30.20872 | -81.87396 | 87 ft | 107 kts | 0° |
| 2026-05-05 01:57 | 30.21161 | -81.87394 | 85 ft | 67 kts | 355° |
| 2026-05-05 01:57 | 30.21219 | -81.87399 | 83 ft | 57 kts | 359° |
| 2026-05-05 01:58 | 30.21362 | -81.87388 | 84 ft | 6 kts | 345° |
| 2026-05-05 01:58 | 30.21485 | -81.87395 | 82 ft | 20 kts | 356° |
| 2026-05-05 01:58 | 30.21617 | -81.87394 | 85 ft | 21 kts | 2° |
| 2026-05-05 01:58 | 30.21747 | -81.87395 | 82 ft | 24 kts | 360° |
| 2026-05-05 01:59 | 30.21909 | -81.87406 | 73 ft | 21 kts | 2° |
| 2026-05-05 01:59 | 30.22063 | -81.87398 | 77 ft | 22 kts | 4° |